createdAt,value
2018-09-21T00:00:09.772Z,1021.43626034
2018-09-21T00:00:22.211Z,1021.43626034
2018-09-21T00:00:34.648Z,1021.43626034
2018-09-21T00:00:47.077Z,1021.43626034
2018-09-21T00:00:59.496Z,1021.43626034
2018-09-21T00:01:11.921Z,1021.53785199
2018-09-21T00:01:24.322Z,1021.53785199
2018-09-21T00:01:36.734Z,1021.53785199
2018-09-21T00:01:49.156Z,1021.53785199
2018-09-21T00:02:01.581Z,1021.53785199
2018-09-21T00:02:13.999Z,1021.50398811
2018-09-21T00:02:26.437Z,1021.50398811
2018-09-21T00:02:38.852Z,1021.50398811
2018-09-21T00:02:51.284Z,1021.50398811
2018-09-21T00:03:03.689Z,1021.53785199
2018-09-21T00:03:16.094Z,1021.53785199
2018-09-21T00:03:28.490Z,1021.53785199
2018-09-21T00:03:41.039Z,1021.53785199
2018-09-21T00:03:53.430Z,1021.53785199
2018-09-21T00:04:05.828Z,1021.53785199
2018-09-21T00:04:18.244Z,1021.53785199
2018-09-21T00:04:30.658Z,1021.53785199
2018-09-21T00:04:43.065Z,1021.53785199
2018-09-21T00:04:55.533Z,1021.53785199
2018-09-21T00:05:07.984Z,1021.50398811
2018-09-21T00:05:20.395Z,1021.50398811
2018-09-21T00:05:32.821Z,1021.50398811
2018-09-21T00:05:45.242Z,1021.50398811
2018-09-21T00:05:57.686Z,1021.50398811
2018-09-21T00:06:10.101Z,1021.50398811
2018-09-21T00:06:22.529Z,1021.50398811
2018-09-21T00:06:34.945Z,1021.50398811
2018-09-21T00:06:47.373Z,1021.50398811
2018-09-21T00:06:59.831Z,1021.50398811
2018-09-21T00:07:12.222Z,1021.43626034
2018-09-21T00:07:24.613Z,1021.43626034
2018-09-21T00:07:37.352Z,1021.43626034
2018-09-21T00:07:49.763Z,1021.43626034
2018-09-21T00:08:02.181Z,1021.43626034
2018-09-21T00:08:14.592Z,1021.40239646
2018-09-21T00:08:26.985Z,1021.40239646
2018-09-21T00:08:39.407Z,1021.40239646
2018-09-21T00:08:51.842Z,1021.40239646
2018-09-21T00:09:04.417Z,1021.43626034
2018-09-21T00:09:16.906Z,1021.43626034
2018-09-21T00:09:29.300Z,1021.43626034
2018-09-21T00:09:41.715Z,1021.43626034
2018-09-21T00:09:54.105Z,1021.43626034
2018-09-21T00:10:06.506Z,1021.43626034
2018-09-21T00:10:19.018Z,1021.43626034
2018-09-21T00:10:31.507Z,1021.43626034
2018-09-21T00:10:43.910Z,1021.43626034
2018-09-21T00:10:56.314Z,1021.43626034
2018-09-21T00:11:08.988Z,1021.47012423
2018-09-21T00:11:21.396Z,1021.47012423
2018-09-21T00:11:33.830Z,1021.47012423
2018-09-21T00:11:46.241Z,1021.47012423
2018-09-21T00:11:58.686Z,1021.47012423
2018-09-21T00:12:11.114Z,1021.47012423
2018-09-21T00:12:23.521Z,1021.47012423
2018-09-21T00:12:35.921Z,1021.47012423
2018-09-21T00:12:48.324Z,1021.47012423
2018-09-21T00:13:00.739Z,1021.47012423
2018-09-21T00:13:13.130Z,1021.40239646
2018-09-21T00:13:25.537Z,1021.40239646
2018-09-21T00:13:37.936Z,1021.40239646
2018-09-21T00:13:50.346Z,1021.40239646
2018-09-21T00:14:02.736Z,1021.40239646
2018-09-21T00:14:15.130Z,1021.47012423
2018-09-21T00:14:27.529Z,1021.47012423
2018-09-21T00:14:39.925Z,1021.47012423
2018-09-21T00:14:52.580Z,1021.47012423
2018-09-21T00:15:05.022Z,1021.47012423
2018-09-21T00:15:17.474Z,1021.47012423
2018-09-21T00:15:29.885Z,1021.47012423
2018-09-21T00:15:42.338Z,1021.47012423
2018-09-21T00:15:55.320Z,1021.47012423
2018-09-21T00:16:07.732Z,1021.50398811
2018-09-21T00:16:20.219Z,1021.50398811
2018-09-21T00:16:32.643Z,1021.50398811
2018-09-21T00:16:45.231Z,1021.50398811
2018-09-21T00:16:57.648Z,1021.50398811
2018-09-21T00:17:10.085Z,1021.43626034
2018-09-21T00:17:22.498Z,1021.43626034
2018-09-21T00:17:34.916Z,1021.43626034
2018-09-21T00:17:47.317Z,1021.43626034
2018-09-21T00:17:59.727Z,1021.43626034
2018-09-21T00:18:12.147Z,1021.50398811
2018-09-21T00:18:24.562Z,1021.50398811
2018-09-21T00:18:36.969Z,1021.50398811
2018-09-21T00:18:49.381Z,1021.50398811
2018-09-21T00:19:01.826Z,1021.50398811
2018-09-21T00:19:14.273Z,1021.43626034
2018-09-21T00:19:26.680Z,1021.43626034
2018-09-21T00:19:39.085Z,1021.43626034
2018-09-21T00:19:51.532Z,1021.43626034
2018-09-21T00:20:03.970Z,1021.40239646
2018-09-21T00:20:16.371Z,1021.40239646
2018-09-21T00:20:28.773Z,1021.40239646
2018-09-21T00:20:41.203Z,1021.40239646
2018-09-21T00:20:53.603Z,1021.40239646
2018-09-21T00:21:06.023Z,1021.43626034
2018-09-21T00:21:18.426Z,1021.43626034
2018-09-21T00:21:30.819Z,1021.43626034
2018-09-21T00:21:43.248Z,1021.43626034
2018-09-21T00:21:55.673Z,1021.43626034
2018-09-21T00:22:08.256Z,1021.36853258
2018-09-21T00:22:20.676Z,1021.36853258
2018-09-21T00:22:33.103Z,1021.36853258
2018-09-21T00:22:45.523Z,1021.36853258
2018-09-21T00:22:57.930Z,1021.36853258
2018-09-21T00:23:10.365Z,1021.40239646
2018-09-21T00:23:22.792Z,1021.40239646
2018-09-21T00:23:35.307Z,1021.40239646
2018-09-21T00:23:47.715Z,1021.40239646
2018-09-21T00:24:00.116Z,1021.40239646
2018-09-21T00:24:12.514Z,1021.40239646
2018-09-21T00:24:25.073Z,1021.40239646
2018-09-21T00:24:37.467Z,1021.40239646
2018-09-21T00:24:49.905Z,1021.40239646
2018-09-21T00:25:02.327Z,1021.40239646
2018-09-21T00:25:14.729Z,1021.40239646
2018-09-21T00:25:27.138Z,1021.40239646
2018-09-21T00:25:39.567Z,1021.40239646
2018-09-21T00:25:52.039Z,1021.40239646
2018-09-21T00:26:04.446Z,1021.3346687
2018-09-21T00:26:16.951Z,1021.3346687
2018-09-21T00:26:29.356Z,1021.3346687
2018-09-21T00:26:41.784Z,1021.3346687
2018-09-21T00:26:54.234Z,1021.3346687
2018-09-21T00:27:06.633Z,1021.3346687
2018-09-21T00:27:19.061Z,1021.3346687
2018-09-21T00:27:31.473Z,1021.3346687
2018-09-21T00:27:43.871Z,1021.3346687
2018-09-21T00:27:56.274Z,1021.3346687
2018-09-21T00:28:08.663Z,1021.26694094
2018-09-21T00:28:21.069Z,1021.26694094
2018-09-21T00:28:33.472Z,1021.26694094
2018-09-21T00:28:45.895Z,1021.26694094
2018-09-21T00:28:58.293Z,1021.26694094
2018-09-21T00:29:10.700Z,1021.30080482
2018-09-21T00:29:23.304Z,1021.30080482
2018-09-21T00:29:35.707Z,1021.30080482
2018-09-21T00:29:48.113Z,1021.30080482
2018-09-21T00:30:00.506Z,1021.30080482
2018-09-21T00:30:12.935Z,1021.30080482
2018-09-21T00:30:25.337Z,1021.30080482
2018-09-21T00:30:37.751Z,1021.30080482
2018-09-21T00:30:50.173Z,1021.30080482
2018-09-21T00:31:02.568Z,1021.30080482
2018-09-21T00:31:14.969Z,1021.26694094
2018-09-21T00:31:27.807Z,1021.26694094
2018-09-21T00:31:40.267Z,1021.26694094
2018-09-21T00:31:52.658Z,1021.26694094
2018-09-21T00:32:05.068Z,1021.23307705
2018-09-21T00:32:17.483Z,1021.23307705
2018-09-21T00:32:29.877Z,1021.23307705
2018-09-21T00:32:42.276Z,1021.23307705
2018-09-21T00:32:54.683Z,1021.23307705
2018-09-21T00:33:07.083Z,1021.30080482
2018-09-21T00:33:19.479Z,1021.30080482
2018-09-21T00:33:31.889Z,1021.30080482
2018-09-21T00:33:44.294Z,1021.30080482
2018-09-21T00:33:56.695Z,1021.30080482
2018-09-21T00:34:09.154Z,1021.26694094
2018-09-21T00:34:21.565Z,1021.26694094
2018-09-21T00:34:33.960Z,1021.26694094
2018-09-21T00:34:46.372Z,1021.26694094
2018-09-21T00:34:58.793Z,1021.26694094
2018-09-21T00:35:11.204Z,1021.23307705
2018-09-21T00:35:23.608Z,1021.23307705
2018-09-21T00:35:36.025Z,1021.23307705
2018-09-21T00:35:48.468Z,1021.23307705
2018-09-21T00:36:00.858Z,1021.23307705
2018-09-21T00:36:13.263Z,1021.16534929
2018-09-21T00:36:25.753Z,1021.16534929
2018-09-21T00:36:38.185Z,1021.16534929
2018-09-21T00:36:50.582Z,1021.16534929
2018-09-21T00:37:03.000Z,1021.23307705
2018-09-21T00:37:15.389Z,1021.23307705
2018-09-21T00:37:27.777Z,1021.23307705
2018-09-21T00:37:40.203Z,1021.23307705
2018-09-21T00:37:52.622Z,1021.23307705
2018-09-21T00:38:05.030Z,1021.26694094
2018-09-21T00:38:17.437Z,1021.26694094
2018-09-21T00:38:29.825Z,1021.26694094
2018-09-21T00:38:42.229Z,1021.26694094
2018-09-21T00:38:54.636Z,1021.26694094
2018-09-21T00:39:07.056Z,1021.19921317
2018-09-21T00:39:19.453Z,1021.19921317
2018-09-21T00:39:31.847Z,1021.19921317
2018-09-21T00:39:44.254Z,1021.19921317
2018-09-21T00:39:56.666Z,1021.19921317
2018-09-21T00:40:09.105Z,1021.23307705
2018-09-21T00:40:21.647Z,1021.23307705
2018-09-21T00:40:34.052Z,1021.23307705
2018-09-21T00:40:46.438Z,1021.23307705
2018-09-21T00:40:58.896Z,1021.23307705
2018-09-21T00:41:11.327Z,1021.23307705
2018-09-21T00:41:23.889Z,1021.23307705
2018-09-21T00:41:36.289Z,1021.23307705
2018-09-21T00:41:48.699Z,1021.23307705
2018-09-21T00:42:01.111Z,1021.23307705
2018-09-21T00:42:13.561Z,1021.19921317
2018-09-21T00:42:25.976Z,1021.19921317
2018-09-21T00:42:38.413Z,1021.19921317
2018-09-21T00:42:50.819Z,1021.19921317
2018-09-21T00:43:03.227Z,1021.19921317
2018-09-21T00:43:15.632Z,1021.19921317
2018-09-21T00:43:28.063Z,1021.19921317
2018-09-21T00:43:40.456Z,1021.19921317
2018-09-21T00:43:52.860Z,1021.19921317
2018-09-21T00:44:05.281Z,1021.26694094
2018-09-21T00:44:17.696Z,1021.26694094
2018-09-21T00:44:30.114Z,1021.26694094
2018-09-21T00:44:42.562Z,1021.26694094
2018-09-21T00:44:55.128Z,1021.26694094
2018-09-21T00:45:07.540Z,1021.16534929
2018-09-21T00:45:19.934Z,1021.16534929
2018-09-21T00:45:32.333Z,1021.16534929
2018-09-21T00:45:44.737Z,1021.16534929
2018-09-21T00:45:57.137Z,1021.16534929
2018-09-21T00:46:10.100Z,1021.16534929
2018-09-21T00:46:22.516Z,1021.16534929
2018-09-21T00:46:34.902Z,1021.16534929
2018-09-21T00:46:47.322Z,1021.16534929
2018-09-21T00:46:59.726Z,1021.16534929
2018-09-21T00:47:12.142Z,1021.16534929
2018-09-21T00:47:24.531Z,1021.16534929
2018-09-21T00:47:36.933Z,1021.16534929
2018-09-21T00:47:49.333Z,1021.16534929
2018-09-21T00:48:01.714Z,1021.16534929
2018-09-21T00:48:14.115Z,1021.16534929
2018-09-21T00:48:26.517Z,1021.16534929
2018-09-21T00:48:38.932Z,1021.16534929
2018-09-21T00:48:51.497Z,1021.16534929
2018-09-21T00:49:03.915Z,1021.19921317
2018-09-21T00:49:16.400Z,1021.19921317
2018-09-21T00:49:28.971Z,1021.19921317
2018-09-21T00:49:41.363Z,1021.19921317
2018-09-21T00:49:53.772Z,1021.19921317
2018-09-21T00:50:06.178Z,1021.13148541
2018-09-21T00:50:18.578Z,1021.13148541
2018-09-21T00:50:30.987Z,1021.13148541
2018-09-21T00:50:43.381Z,1021.13148541
2018-09-21T00:50:55.784Z,1021.13148541
2018-09-21T00:51:08.209Z,1021.06375765
2018-09-21T00:51:20.621Z,1021.06375765
2018-09-21T00:51:33.023Z,1021.06375765
2018-09-21T00:51:45.472Z,1021.06375765
2018-09-21T00:51:57.879Z,1021.06375765
2018-09-21T00:52:10.312Z,1021.09762153
2018-09-21T00:52:22.710Z,1021.09762153
2018-09-21T00:52:35.121Z,1021.09762153
2018-09-21T00:52:47.537Z,1021.09762153
2018-09-21T00:52:59.942Z,1021.09762153
2018-09-21T00:53:12.349Z,1021.09762153
2018-09-21T00:53:24.757Z,1021.09762153
2018-09-21T00:53:37.154Z,1021.09762153
2018-09-21T00:53:49.560Z,1021.09762153
2018-09-21T00:54:01.962Z,1021.09762153
2018-09-21T00:54:14.387Z,1021.13148541
2018-09-21T00:54:26.839Z,1021.13148541
2018-09-21T00:54:39.249Z,1021.13148541
2018-09-21T00:54:51.656Z,1021.13148541
2018-09-21T00:55:04.046Z,1021.13148541
2018-09-21T00:55:16.456Z,1021.13148541
2018-09-21T00:55:28.941Z,1021.13148541
2018-09-21T00:55:41.423Z,1021.13148541
2018-09-21T00:55:53.836Z,1021.13148541
2018-09-21T00:56:06.228Z,1021.09762153
2018-09-21T00:56:18.607Z,1021.09762153
2018-09-21T00:56:31.009Z,1021.09762153
2018-09-21T00:56:43.439Z,1021.09762153
2018-09-21T00:56:55.850Z,1021.09762153
2018-09-21T00:57:08.243Z,1021.09762153
2018-09-21T00:57:20.662Z,1021.09762153
2018-09-21T00:57:33.061Z,1021.09762153
2018-09-21T00:57:45.468Z,1021.09762153
2018-09-21T00:57:57.875Z,1021.09762153
2018-09-21T00:58:10.299Z,1021.02989376
2018-09-21T00:58:22.704Z,1021.02989376
2018-09-21T00:58:35.152Z,1021.02989376
2018-09-21T00:58:47.570Z,1021.02989376
2018-09-21T00:59:00.025Z,1021.02989376
2018-09-21T00:59:12.415Z,1021.06375765
2018-09-21T00:59:24.864Z,1021.06375765
2018-09-21T00:59:37.255Z,1021.06375765
2018-09-21T00:59:49.808Z,1021.06375765
2018-09-21T01:00:02.228Z,1021.06375765
2018-09-21T01:00:14.678Z,1021.02989376
2018-09-21T01:00:27.123Z,1021.02989376
2018-09-21T01:00:39.553Z,1021.02989376
2018-09-21T01:00:51.985Z,1021.02989376
2018-09-21T01:01:04.426Z,1021.13148541
2018-09-21T01:01:16.847Z,1021.13148541
2018-09-21T01:01:29.259Z,1021.13148541
2018-09-21T01:01:41.646Z,1021.13148541
2018-09-21T01:01:54.105Z,1021.13148541
2018-09-21T01:02:06.533Z,1020.99602988
2018-09-21T01:02:19.116Z,1020.99602988
2018-09-21T01:02:31.511Z,1020.99602988
2018-09-21T01:02:43.910Z,1020.99602988
2018-09-21T01:02:56.315Z,1020.99602988
2018-09-21T01:03:08.791Z,1020.99602988
2018-09-21T01:03:21.269Z,1020.99602988
2018-09-21T01:03:33.845Z,1020.99602988
2018-09-21T01:03:46.259Z,1020.99602988
2018-09-21T01:03:58.651Z,1020.99602988
2018-09-21T01:04:11.116Z,1020.99602988
2018-09-21T01:04:23.534Z,1020.99602988
2018-09-21T01:04:35.934Z,1020.99602988
2018-09-21T01:04:48.354Z,1020.99602988
2018-09-21T01:05:00.980Z,1020.99602988
2018-09-21T01:05:13.378Z,1021.06375765
2018-09-21T01:05:25.810Z,1021.06375765
2018-09-21T01:05:38.220Z,1021.06375765
2018-09-21T01:05:50.622Z,1021.06375765
2018-09-21T01:06:03.015Z,1021.06375765
2018-09-21T01:06:15.421Z,1021.06375765
2018-09-21T01:06:27.824Z,1021.06375765
2018-09-21T01:06:40.238Z,1021.06375765
2018-09-21T01:06:52.656Z,1021.06375765
2018-09-21T01:07:05.058Z,1020.962166
2018-09-21T01:07:17.454Z,1020.962166
2018-09-21T01:07:29.857Z,1020.962166
2018-09-21T01:07:42.243Z,1020.962166
2018-09-21T01:07:54.652Z,1020.962166
2018-09-21T01:08:07.047Z,1020.962166
2018-09-21T01:08:19.444Z,1020.962166
2018-09-21T01:08:31.838Z,1020.962166
2018-09-21T01:08:44.384Z,1020.962166
2018-09-21T01:08:57.036Z,1020.962166
2018-09-21T01:09:09.460Z,1020.89443824
2018-09-21T01:09:21.914Z,1020.89443824
2018-09-21T01:09:34.311Z,1020.89443824
2018-09-21T01:09:46.713Z,1020.89443824
2018-09-21T01:09:59.113Z,1020.89443824
2018-09-21T01:10:11.516Z,1020.86057436
2018-09-21T01:10:24.248Z,1020.86057436
2018-09-21T01:10:36.648Z,1020.86057436
2018-09-21T01:10:49.056Z,1020.86057436
2018-09-21T01:11:01.443Z,1020.86057436
2018-09-21T01:11:13.841Z,1020.92830212
2018-09-21T01:11:26.406Z,1020.92830212
2018-09-21T01:11:38.818Z,1020.92830212
2018-09-21T01:11:51.222Z,1020.92830212
2018-09-21T01:12:03.629Z,1020.92830212
2018-09-21T01:12:16.029Z,1020.92830212
2018-09-21T01:12:28.452Z,1020.92830212
2018-09-21T01:12:40.871Z,1020.92830212
2018-09-21T01:12:53.259Z,1020.92830212
2018-09-21T01:13:05.677Z,1020.89443824
2018-09-21T01:13:18.108Z,1020.89443824
2018-09-21T01:13:30.520Z,1020.89443824
2018-09-21T01:13:42.945Z,1020.89443824
2018-09-21T01:13:55.348Z,1020.89443824
2018-09-21T01:14:07.746Z,1020.962166
2018-09-21T01:14:20.157Z,1020.962166
2018-09-21T01:14:32.607Z,1020.962166
2018-09-21T01:14:45.008Z,1020.962166
2018-09-21T01:14:57.819Z,1020.962166
2018-09-21T01:15:10.208Z,1020.89443824
2018-09-21T01:15:22.647Z,1020.89443824
2018-09-21T01:15:35.064Z,1020.89443824
2018-09-21T01:15:47.469Z,1020.89443824
2018-09-21T01:15:59.869Z,1020.89443824
2018-09-21T01:16:12.276Z,1020.86057436
2018-09-21T01:16:25.566Z,1020.86057436
2018-09-21T01:16:37.971Z,1020.86057436
2018-09-21T01:16:50.601Z,1020.86057436
2018-09-21T01:17:02.995Z,1020.92830212
2018-09-21T01:17:15.396Z,1020.92830212
2018-09-21T01:17:27.817Z,1020.92830212
2018-09-21T01:17:40.234Z,1020.92830212
2018-09-21T01:17:52.619Z,1020.92830212
2018-09-21T01:18:05.033Z,1020.82671048
2018-09-21T01:18:17.434Z,1020.82671048
2018-09-21T01:18:29.828Z,1020.82671048
2018-09-21T01:18:42.261Z,1020.82671048
2018-09-21T01:18:54.657Z,1020.82671048
2018-09-21T01:19:07.044Z,1020.92830212
2018-09-21T01:19:19.439Z,1020.92830212
2018-09-21T01:19:31.846Z,1020.92830212
2018-09-21T01:19:44.261Z,1020.92830212
2018-09-21T01:19:56.690Z,1020.92830212
2018-09-21T01:20:09.100Z,1020.92830212
2018-09-21T01:20:21.502Z,1020.92830212
2018-09-21T01:20:33.959Z,1020.92830212
2018-09-21T01:20:46.352Z,1020.92830212
2018-09-21T01:20:58.731Z,1020.92830212
2018-09-21T01:21:11.127Z,1020.86057436
2018-09-21T01:21:23.517Z,1020.86057436
2018-09-21T01:21:35.912Z,1020.86057436
2018-09-21T01:21:48.379Z,1020.86057436
2018-09-21T01:22:00.854Z,1020.86057436
2018-09-21T01:22:13.282Z,1020.92830212
2018-09-21T01:22:25.684Z,1020.92830212
2018-09-21T01:22:38.085Z,1020.92830212
2018-09-21T01:22:50.484Z,1020.92830212
2018-09-21T01:23:02.884Z,1020.92830212
2018-09-21T01:23:15.291Z,1020.82671048
2018-09-21T01:23:27.885Z,1020.82671048
2018-09-21T01:23:40.296Z,1020.82671048
2018-09-21T01:23:52.692Z,1020.82671048
2018-09-21T01:24:05.091Z,1020.89443824
2018-09-21T01:24:17.648Z,1020.89443824
2018-09-21T01:24:30.038Z,1020.89443824
2018-09-21T01:24:42.453Z,1020.89443824
2018-09-21T01:24:54.865Z,1020.89443824
2018-09-21T01:25:07.271Z,1020.92830212
2018-09-21T01:25:19.663Z,1020.92830212
2018-09-21T01:25:32.066Z,1020.92830212
2018-09-21T01:25:44.482Z,1020.92830212
2018-09-21T01:25:56.862Z,1020.92830212
2018-09-21T01:26:09.283Z,1020.82671048
2018-09-21T01:26:21.688Z,1020.82671048
2018-09-21T01:26:34.068Z,1020.82671048
2018-09-21T01:26:46.550Z,1020.82671048
2018-09-21T01:26:58.990Z,1020.82671048
2018-09-21T01:27:11.398Z,1020.89443824
2018-09-21T01:27:23.822Z,1020.89443824
2018-09-21T01:27:36.206Z,1020.89443824
2018-09-21T01:27:48.599Z,1020.89443824
2018-09-21T01:28:01.002Z,1020.89443824
2018-09-21T01:28:13.421Z,1020.92830212
2018-09-21T01:28:25.830Z,1020.92830212
2018-09-21T01:28:38.239Z,1020.92830212
2018-09-21T01:28:50.638Z,1020.92830212
2018-09-21T01:29:03.026Z,1020.89443824
2018-09-21T01:29:15.653Z,1020.89443824
2018-09-21T01:29:28.057Z,1020.89443824
2018-09-21T01:29:40.458Z,1020.89443824
2018-09-21T01:29:52.850Z,1020.89443824
2018-09-21T01:30:05.257Z,1020.86057436
2018-09-21T01:30:17.662Z,1020.86057436
2018-09-21T01:30:30.055Z,1020.86057436
2018-09-21T01:30:42.451Z,1020.86057436
2018-09-21T01:30:54.883Z,1020.86057436
2018-09-21T01:31:07.319Z,1020.89443824
2018-09-21T01:31:19.702Z,1020.89443824
2018-09-21T01:31:32.243Z,1020.89443824
2018-09-21T01:31:44.653Z,1020.89443824
2018-09-21T01:31:57.068Z,1020.89443824
2018-09-21T01:32:09.462Z,1020.86057436
2018-09-21T01:32:21.888Z,1020.86057436
2018-09-21T01:32:34.285Z,1020.86057436
2018-09-21T01:32:47.018Z,1020.86057436
2018-09-21T01:33:00.350Z,1020.86057436
2018-09-21T01:33:12.763Z,1020.79284659
2018-09-21T01:33:25.260Z,1020.79284659
2018-09-21T01:33:37.663Z,1020.79284659
2018-09-21T01:33:50.118Z,1020.79284659
2018-09-21T01:34:02.516Z,1020.79284659
2018-09-21T01:34:14.921Z,1020.82671048
2018-09-21T01:34:27.607Z,1020.82671048
2018-09-21T01:34:40.009Z,1020.82671048
2018-09-21T01:34:52.543Z,1020.82671048
2018-09-21T01:35:04.936Z,1020.75898271
2018-09-21T01:35:17.386Z,1020.75898271
2018-09-21T01:35:29.798Z,1020.75898271
2018-09-21T01:35:42.200Z,1020.75898271
2018-09-21T01:35:54.612Z,1020.75898271
2018-09-21T01:36:07.031Z,1020.82671048
2018-09-21T01:36:19.445Z,1020.82671048
2018-09-21T01:36:32.043Z,1020.82671048
2018-09-21T01:36:44.444Z,1020.82671048
2018-09-21T01:36:56.871Z,1020.82671048
2018-09-21T01:37:09.296Z,1020.79284659
2018-09-21T01:37:21.863Z,1020.79284659
2018-09-21T01:37:34.329Z,1020.79284659
2018-09-21T01:37:46.718Z,1020.79284659
2018-09-21T01:37:59.191Z,1020.79284659
2018-09-21T01:38:11.604Z,1020.79284659
2018-09-21T01:38:24.005Z,1020.79284659
2018-09-21T01:38:36.447Z,1020.79284659
2018-09-21T01:38:48.873Z,1020.79284659
2018-09-21T01:39:01.271Z,1020.79284659
2018-09-21T01:39:13.674Z,1020.79284659
2018-09-21T01:39:26.076Z,1020.79284659
2018-09-21T01:39:38.484Z,1020.79284659
2018-09-21T01:39:50.905Z,1020.79284659
2018-09-21T01:40:03.316Z,1020.75898271
2018-09-21T01:40:15.793Z,1020.75898271
2018-09-21T01:40:28.464Z,1020.75898271
2018-09-21T01:40:40.868Z,1020.75898271
2018-09-21T01:40:53.262Z,1020.75898271
2018-09-21T01:41:05.677Z,1020.79284659
2018-09-21T01:41:18.080Z,1020.79284659
2018-09-21T01:41:30.477Z,1020.79284659
2018-09-21T01:41:42.884Z,1020.79284659
2018-09-21T01:41:55.294Z,1020.79284659
2018-09-21T01:42:07.710Z,1020.69125495
2018-09-21T01:42:20.553Z,1020.69125495
2018-09-21T01:42:32.946Z,1020.69125495
2018-09-21T01:42:45.333Z,1020.69125495
2018-09-21T01:42:57.734Z,1020.69125495
2018-09-21T01:43:10.149Z,1020.69125495
2018-09-21T01:43:22.554Z,1020.69125495
2018-09-21T01:43:34.956Z,1020.69125495
2018-09-21T01:43:47.372Z,1020.69125495
2018-09-21T01:43:59.767Z,1020.69125495
2018-09-21T01:44:12.162Z,1020.75898271
2018-09-21T01:44:24.546Z,1020.75898271
2018-09-21T01:44:36.962Z,1020.75898271
2018-09-21T01:44:49.366Z,1020.75898271
2018-09-21T01:45:01.772Z,1020.75898271
2018-09-21T01:45:14.179Z,1020.69125495
2018-09-21T01:45:26.731Z,1020.69125495
2018-09-21T01:45:39.198Z,1020.69125495
2018-09-21T01:45:51.606Z,1020.69125495
2018-09-21T01:46:03.996Z,1020.79284659
2018-09-21T01:46:16.528Z,1020.79284659
2018-09-21T01:46:28.919Z,1020.79284659
2018-09-21T01:46:41.325Z,1020.79284659
2018-09-21T01:46:53.734Z,1020.79284659
2018-09-21T01:47:06.133Z,1020.69125495
2018-09-21T01:47:18.533Z,1020.69125495
2018-09-21T01:47:30.925Z,1020.69125495
2018-09-21T01:47:43.320Z,1020.69125495
2018-09-21T01:47:55.729Z,1020.69125495
2018-09-21T01:48:08.136Z,1020.62352719
2018-09-21T01:48:20.536Z,1020.62352719
2018-09-21T01:48:32.918Z,1020.62352719
2018-09-21T01:48:45.304Z,1020.62352719
2018-09-21T01:48:57.854Z,1020.62352719
2018-09-21T01:49:10.310Z,1020.69125495
2018-09-21T01:49:22.904Z,1020.69125495
2018-09-21T01:49:35.301Z,1020.69125495
2018-09-21T01:49:47.675Z,1020.69125495
2018-09-21T01:50:00.102Z,1020.69125495
2018-09-21T01:50:12.497Z,1020.62352719
2018-09-21T01:50:25.422Z,1020.62352719
2018-09-21T01:50:38.965Z,1020.62352719
2018-09-21T01:50:51.365Z,1020.62352719
2018-09-21T01:51:03.771Z,1020.69125495
2018-09-21T01:51:16.196Z,1020.69125495
2018-09-21T01:51:28.620Z,1020.69125495
2018-09-21T01:51:41.016Z,1020.69125495
2018-09-21T01:51:53.418Z,1020.69125495
2018-09-21T01:52:05.817Z,1020.69125495
2018-09-21T01:52:18.224Z,1020.69125495
2018-09-21T01:52:30.615Z,1020.69125495
2018-09-21T01:52:43.020Z,1020.69125495
2018-09-21T01:52:55.417Z,1020.69125495
2018-09-21T01:53:07.866Z,1020.69125495
2018-09-21T01:53:20.286Z,1020.69125495
2018-09-21T01:53:32.678Z,1020.69125495
2018-09-21T01:53:45.099Z,1020.69125495
2018-09-21T01:53:57.871Z,1020.69125495
2018-09-21T01:54:10.274Z,1020.69125495
2018-09-21T01:54:22.665Z,1020.69125495
2018-09-21T01:54:35.069Z,1020.69125495
2018-09-21T01:54:47.490Z,1020.69125495
2018-09-21T01:54:59.899Z,1020.69125495
2018-09-21T01:55:12.329Z,1020.69125495
2018-09-21T01:55:24.739Z,1020.69125495
2018-09-21T01:55:37.132Z,1020.69125495
2018-09-21T01:55:49.544Z,1020.69125495
2018-09-21T01:56:01.951Z,1020.69125495
2018-09-21T01:56:14.357Z,1020.62352719
2018-09-21T01:56:26.803Z,1020.62352719
2018-09-21T01:56:39.221Z,1020.62352719
2018-09-21T01:56:51.645Z,1020.62352719
2018-09-21T01:57:04.062Z,1020.65739107
2018-09-21T01:57:16.482Z,1020.65739107
2018-09-21T01:57:28.874Z,1020.65739107
2018-09-21T01:57:41.270Z,1020.65739107
2018-09-21T01:57:53.672Z,1020.65739107
2018-09-21T01:58:06.085Z,1020.62352719
2018-09-21T01:58:18.485Z,1020.62352719
2018-09-21T01:58:30.924Z,1020.62352719
2018-09-21T01:58:43.327Z,1020.62352719
2018-09-21T01:58:55.862Z,1020.62352719
2018-09-21T01:59:08.337Z,1020.62352719
2018-09-21T01:59:20.734Z,1020.62352719
2018-09-21T01:59:33.192Z,1020.62352719
2018-09-21T01:59:45.608Z,1020.62352719
2018-09-21T01:59:58.341Z,1020.62352719
2018-09-21T02:00:10.752Z,1020.5896633
2018-09-21T02:00:23.194Z,1020.5896633
2018-09-21T02:00:35.677Z,1020.5896633
2018-09-21T02:00:48.094Z,1020.5896633
2018-09-21T02:01:00.518Z,1020.5896633
2018-09-21T02:01:12.979Z,1020.62352719
2018-09-21T02:01:25.385Z,1020.62352719
2018-09-21T02:01:37.850Z,1020.62352719
2018-09-21T02:01:50.236Z,1020.62352719
2018-09-21T02:02:02.642Z,1020.62352719
2018-09-21T02:02:15.212Z,1020.62352719
2018-09-21T02:02:27.631Z,1020.62352719
2018-09-21T02:02:40.028Z,1020.62352719
2018-09-21T02:02:52.435Z,1020.62352719
2018-09-21T02:03:04.874Z,1020.55579942
2018-09-21T02:03:17.282Z,1020.55579942
2018-09-21T02:03:29.833Z,1020.55579942
2018-09-21T02:03:42.398Z,1020.55579942
2018-09-21T02:03:54.821Z,1020.55579942
2018-09-21T02:04:07.223Z,1020.55579942
2018-09-21T02:04:19.637Z,1020.55579942
2018-09-21T02:04:32.054Z,1020.55579942
2018-09-21T02:04:44.471Z,1020.55579942
2018-09-21T02:04:56.882Z,1020.55579942
2018-09-21T02:05:09.288Z,1020.65739107
2018-09-21T02:05:21.705Z,1020.65739107
2018-09-21T02:05:34.129Z,1020.65739107
2018-09-21T02:05:46.561Z,1020.65739107
2018-09-21T02:05:58.963Z,1020.65739107
2018-09-21T02:06:11.386Z,1020.62352719
2018-09-21T02:06:23.985Z,1020.62352719
2018-09-21T02:06:36.406Z,1020.62352719
2018-09-21T02:06:48.812Z,1020.62352719
2018-09-21T02:07:01.221Z,1020.62352719
2018-09-21T02:07:13.613Z,1020.65739107
2018-09-21T02:07:26.012Z,1020.65739107
2018-09-21T02:07:38.418Z,1020.65739107